Time;durP1;ratioP1;P1;durP2;ratioP2;P2;SDS_P1;SDS_P2;PMS_P1;PMS_P2;Temp;Humidity;BMP_temperature;BMP_pressure;BME280_temperature;BME280_humidity;BME280_pressure;Samples;Min_cycle;Max_cycle;Signal;HPM_P1;HPM_P2
2023/01/07 00:01:20;;;;;;;2.40;1.92;;;;;;;-4.21;100.00;100439.94;1654406;84;21486;-67
2023/01/07 00:03:47;;;;;;;3.20;2.25;;;;;;;-4.16;100.00;100439.67;1719713;82;21523;-68
2023/01/07 00:06:16;;;;;;;;;;;;;;;-4.15;100.00;100438.83;1721203;81;21453;-67
2023/01/07 00:08:44;;;;;;;2.42;2.22;;;;;;;-4.24;100.00;100442.41;1709201;81;20174;-67
2023/01/07 00:11:16;;;;;;;4.17;2.92;;;;;;;-4.21;100.00;100442.08;1720268;82;21501;-66
2023/01/07 00:13:43;;;;;;;4.58;2.87;;;;;;;-4.23;100.00;100448.02;1716192;83;21497;-66
2023/01/07 00:16:15;;;;;;;3.70;2.90;;;;;;;-4.34;100.00;100453.68;1718179;82;21495;-68
2023/01/07 00:18:44;;;;;;;4.17;3.08;;;;;;;-4.42;100.00;100451.30;1717469;82;21076;-66
2023/01/07 00:21:14;;;;;;;3.87;2.62;;;;;;;-4.49;100.00;100449.36;1720003;81;21537;-64
2023/01/07 00:23:42;;;;;;;6.20;3.87;;;;;;;-4.58;100.00;100457.64;1719419;81;21799;-64
2023/01/07 00:26:17;;;;;;;3.58;2.80;;;;;;;-4.66;100.00;100465.94;1719872;82;21663;-65
2023/01/07 00:28:46;;;;;;;4.30;2.95;;;;;;;-4.75;100.00;100467.37;1717276;82;21630;-66
2023/01/07 00:31:23;;;;;;;5.72;3.27;;;;;;;-4.77;100.00;100472.87;1649491;86;21094;-66
2023/01/07 00:36:23;;;;;;;3.62;2.80;;;;;;;-4.89;100.00;100473.77;1680515;84;21687;-64
2023/01/07 00:38:58;;;;;;;3.60;2.98;;;;;;;-4.89;100.00;100487.45;1680825;84;21463;-64
2023/01/07 00:41:25;;;;;;;5.95;2.85;;;;;;;-4.93;100.00;100487.32;1679058;84;21581;-65
2023/01/07 00:43:52;;;;;;;3.98;2.33;;;;;;;-4.96;100.00;100483.36;1683654;83;21010;-65
2023/01/07 00:46:19;;;;;;;4.43;2.93;;;;;;;-5.00;100.00;100475.97;1680805;84;21463;-66
2023/01/07 00:48:46;;;;;;;3.52;1.95;;;;;;;-4.98;100.00;100479.88;1671886;83;22039;-65
2023/01/07 00:51:14;;;;;;;3.83;2.98;;;;;;;-4.99;100.00;100475.55;1677973;84;21636;-64
2023/01/07 00:53:41;;;;;;;3.95;2.90;;;;;;;-5.03;100.00;100488.68;1663148;83;21700;-63
2023/01/07 00:56:09;;;;;;;4.08;2.83;;;;;;;-5.04;100.00;100494.64;1678301;84;21523;-64
2023/01/07 00:58:37;;;;;;;2.87;2.45;;;;;;;-5.06;100.00;100503.12;1683142;83;21005;-63
2023/01/07 01:01:04;;;;;;;5.53;3.33;;;;;;;-5.11;100.00;100493.55;1679972;84;21605;-64
2023/01/07 01:03:31;;;;;;;;;;;;;;;-5.10;100.00;100502.14;1681573;83;21577;-64
2023/01/07 01:06:11;;;;;;;3.67;2.35;;;;;;;-5.17;100.00;100500.18;1686822;84;27018;-64
2023/01/07 01:08:43;;;;;;;4.70;2.87;;;;;;;-5.18;100.00;100495.86;1673505;84;21525;-63
2023/01/07 01:11:12;;;;;;;3.72;2.98;;;;;;;-5.18;100.00;100499.31;1682919;83;21430;-62
2023/01/07 01:13:39;;;;;;;4.87;2.92;;;;;;;-5.15;100.00;100489.56;1686323;83;21903;-64
2023/01/07 01:16:09;;;;;;;4.62;2.62;;;;;;;-5.06;100.00;100494.14;1686700;83;21496;-64
2023/01/07 01:18:37;;;;;;;4.90;3.55;;;;;;;-5.02;100.00;100494.28;1684482;83;21545;-63
2023/01/07 01:21:06;;;;;;;5.08;2.85;;;;;;;-5.00;100.00;100492.64;1655327;85;21463;-65
2023/01/07 01:23:33;;;;;;;4.92;3.08;;;;;;;-5.00;100.00;100494.34;1681359;83;21025;-63
2023/01/07 01:26:09;;;;;;;3.25;2.75;;;;;;;-5.00;100.00;100490.50;1651728;85;22031;-62
2023/01/07 01:28:36;;;;;;;4.33;3.08;;;;;;;-4.98;100.00;100496.55;1678829;84;21587;-65
2023/01/07 01:31:07;;;;;;;5.12;3.47;;;;;;;-4.99;100.00;100496.97;1684213;84;21453;-64
2023/01/07 01:33:47;;;;;;;5.97;3.25;;;;;;;-4.96;100.00;100501.31;1682787;83;21537;-67
2023/01/07 01:36:15;;;;;;;2.65;2.42;;;;;;;-5.01;100.00;100500.28;1682661;84;21622;-66
2023/01/07 01:38:42;;;;;;;6.00;3.25;;;;;;;-5.05;100.00;100502.28;1681301;83;22001;-67
2023/01/07 01:41:09;;;;;;;5.03;3.30;;;;;;;-5.06;100.00;100497.99;1684060;84;21480;-65
2023/01/07 01:43:40;;;;;;;4.78;3.33;;;;;;;-5.09;100.00;100498.31;1682017;82;21593;-65
2023/01/07 01:46:35;;;;;;;5.08;3.08;;;;;;;-5.05;100.00;100493.31;1683208;83;21530;-65
2023/01/07 01:49:13;;;;;;;5.90;3.30;;;;;;;-5.05;100.00;100500.58;1687757;83;21438;-65
2023/01/07 01:51:41;;;;;;;4.55;3.12;;;;;;;-5.04;100.00;100501.48;1681795;84;21727;-67
2023/01/07 01:54:09;;;;;;;4.58;3.50;;;;;;;-5.08;100.00;100495.37;1688427;83;21517;-65
2023/01/07 01:56:39;;;;;;;4.33;3.10;;;;;;;-5.12;100.00;100491.83;1680217;82;21569;-65
2023/01/07 01:59:11;;;;;;;4.42;2.90;;;;;;;-5.12;100.00;100486.70;1681549;82;21581;-65
2023/01/07 02:01:38;;;;;;;4.67;3.17;;;;;;;-5.16;100.00;100481.01;1679681;83;21577;-66
2023/01/07 02:04:11;;;;;;;5.08;3.30;;;;;;;-5.13;100.00;100486.64;1661084;84;21778;-65
2023/01/07 02:07:05;;;;;;;7.08;3.00;;;;;;;-5.12;100.00;100489.68;1680420;83;21557;-67
2023/01/07 02:09:32;;;;;;;4.30;3.42;;;;;;;-5.15;100.00;100483.16;1682756;83;21568;-65
2023/01/07 02:12:13;;;;;;;4.60;3.20;;;;;;;-5.13;100.00;100478.53;1681551;84;21482;-66
2023/01/07 02:15:13;;;;;;;4.60;3.20;;;;;;;-5.04;100.00;100479.26;1682214;84;21723;-66
2023/01/07 02:17:58;;;;;;;4.33;3.12;;;;;;;-4.99;100.00;100480.68;1642632;83;21828;-65
2023/01/07 02:20:46;;;;;;;4.35;3.10;;;;;;;-4.99;100.00;100480.68;1677084;83;21593;-66
2023/01/07 02:23:33;;;;;;;4.15;3.00;;;;;;;-4.99;100.00;100485.81;1673804;83;21451;-68
2023/01/07 02:26:23;;;;;;;4.40;3.10;;;;;;;-4.97;100.00;100485.45;1674747;84;21543;-66
2023/01/07 02:29:29;;;;;;;5.22;2.98;;;;;;;-5.01;100.00;100488.34;1682629;83;21426;-68
2023/01/07 02:32:40;;;;;;;4.72;3.27;;;;;;;-5.07;100.00;100500.94;1656197;84;21911;-67
2023/01/07 02:35:22;;;;;;;4.22;3.22;;;;;;;-5.13;100.00;100496.89;1681275;83;21474;-67
2023/01/07 02:38:14;;;;;;;3.27;2.87;;;;;;;-5.15;100.00;100494.69;1685226;83;21544;-67
2023/01/07 02:41:12;;;;;;;5.35;3.47;;;;;;;-5.13;100.00;100496.89;1681115;84;21496;-68
2023/01/07 02:43:57;;;;;;;4.95;3.00;;;;;;;-5.11;100.00;100496.53;1670717;83;21022;-67
2023/01/07 02:46:47;;;;;;;6.17;3.27;;;;;;;-5.13;100.00;100500.32;1676721;83;23504;-68
2023/01/07 02:49:15;;;;;;;4.17;3.17;;;;;;;-5.19;100.00;100503.11;1682625;83;20958;-68
2023/01/07 02:51:44;;;;;;;4.65;3.08;;;;;;;-5.20;100.00;100503.91;1679576;83;21459;-66
2023/01/07 02:54:16;;;;;;;4.15;3.08;;;;;;;-5.18;100.00;100509.96;1681274;83;21609;-65
2023/01/07 02:57:25;;;;;;;3.62;2.80;;;;;;;-5.17;100.00;100500.18;1691560;83;21516;-66
2023/01/07 03:00:09;;;;;;;4.22;2.40;;;;;;;-5.21;100.00;100515.00;1683096;83;21817;-67
2023/01/07 03:02:45;;;;;;;5.10;2.80;;;;;;;-5.23;100.00;100511.52;1679598;83;21065;-67
2023/01/07 03:05:38;;;;;;;4.40;2.72;;;;;;;-5.20;100.00;100516.73;1681210;83;21516;-68
2023/01/07 03:08:29;;;;;;;6.95;3.72;;;;;;;-5.21;100.00;100515.87;1677150;83;21503;-70
2023/01/07 03:11:02;;;;;;;3.92;2.90;;;;;;;-5.22;100.00;100515.39;1669395;83;21619;-69
2023/01/07 03:13:46;;;;;;;3.55;2.80;;;;;;;-5.25;100.00;100516.59;1655063;84;21837;-67
2023/01/07 03:16:30;;;;;;;6.15;3.22;;;;;;;-5.27;100.00;100519.51;1682315;83;21430;-68
2023/01/07 03:19:15;;;;;;;3.27;2.83;;;;;;;-5.28;100.00;100510.92;1707556;81;21558;-66
2023/01/07 03:21:42;;;;;;;3.87;2.90;;;;;;;-5.29;100.00;100513.45;1713051;82;21557;-67
2023/01/07 03:24:08;;;;;;;4.03;2.90;;;;;;;-5.32;100.00;100510.77;1712616;81;21470;-67
2023/01/07 03:26:42;;;;;;;5.43;3.20;;;;;;;-5.33;100.00;100506.45;1718430;81;21451;-66
2023/01/07 03:29:10;;;;;;;3.45;2.65;;;;;;;-5.36;100.00;100511.07;1713287;81;21448;-66
2023/01/07 03:31:43;;;;;;;4.55;3.22;;;;;;;-5.39;100.00;100507.11;1715732;81;21577;-67
2023/01/07 03:34:12;;;;;;;4.58;3.00;;;;;;;-5.34;100.00;100517.54;1701991;83;20988;-66
2023/01/07 03:36:42;;;;;;;3.52;2.77;;;;;;;-5.30;100.00;100515.13;1652282;84;21543;-67
2023/01/07 03:39:10;;;;;;;5.85;2.60;;;;;;;-5.32;100.00;100514.20;1717740;82;22023;-65
2023/01/07 03:44:23;;;;;;;3.10;2.40;;;;;;;-5.35;100.00;100516.68;1712745;81;21475;-65
2023/01/07 03:46:50;;;;;;;3.87;2.70;;;;;;;-5.37;100.00;100519.59;1720887;82;21436;-65
2023/01/07 03:49:17;;;;;;;3.17;2.80;;;;;;;-5.34;100.00;100526.52;1720598;82;21507;-66
2023/01/07 03:51:45;;;;;;;4.22;2.62;;;;;;;-5.34;100.00;100530.36;1717260;82;21748;-65
2023/01/07 03:54:12;;;;;;;6.50;3.10;;;;;;;-5.30;100.00;100530.51;1720600;81;21506;-65
2023/01/07 03:56:39;;;;;;;3.22;2.42;;;;;;;-5.28;100.00;100531.43;1720098;82;21566;-65
2023/01/07 03:59:05;;;;;;;5.25;3.27;;;;;;;-5.31;100.00;100526.22;1717798;82;21462;-65
2023/01/07 04:01:32;;;;;;;4.08;3.05;;;;;;;-5.34;100.00;100527.80;1719630;82;21551;-65
2023/01/07 04:03:59;;;;;;;3.65;2.70;;;;;;;-5.32;100.00;100527.02;1717839;82;21784;-64
2023/01/07 04:06:26;;;;;;;6.53;2.75;;;;;;;-5.32;100.00;100528.30;1719924;82;21615;-64
2023/01/07 04:08:53;;;;;;;4.37;2.90;;;;;;;-5.29;100.00;100528.84;1718269;82;21473;-65
2023/01/07 04:11:20;;;;;;;5.73;2.87;;;;;;;-5.29;100.00;100525.86;1719373;83;21444;-65
2023/01/07 04:13:47;;;;;;;4.05;2.95;;;;;;;-5.30;100.00;100524.52;1717916;81;21543;-65
2023/01/07 04:16:14;;;;;;;2.80;2.37;;;;;;;-5.35;100.00;100520.91;1716333;81;21883;-64
2023/01/07 04:18:41;;;;;;;5.72;3.37;;;;;;;-5.34;100.00;100530.36;1720472;82;21565;-65
2023/01/07 04:21:08;;;;;;;4.27;2.70;;;;;;;-5.32;100.00;100531.28;1716060;82;21501;-65
2023/01/07 04:23:34;;;;;;;2.57;2.33;;;;;;;-5.37;100.00;100527.29;1719233;82;21572;-65
2023/01/07 04:26:01;;;;;;;4.78;3.25;;;;;;;-5.37;100.00;100527.29;1718338;83;21587;-64
2023/01/07 04:28:28;;;;;;;3.80;2.98;;;;;;;-5.36;100.00;100525.59;1719326;82;21816;-65
2023/01/07 04:31:00;;;;;;;4.80;3.25;;;;;;;-5.36;100.00;100532.00;1720215;81;21095;-65
2023/01/07 04:33:27;;;;;;;4.12;3.15;;;;;;;-5.36;100.00;100530.30;1648942;85;21046;-64
2023/01/07 04:35:56;;;;;;;3.33;3.02;;;;;;;-5.37;100.00;100527.67;1717548;81;21455;-64
2023/01/07 04:38:23;;;;;;;5.80;3.25;;;;;;;-5.39;100.00;100526.75;1717916;81;21612;-67
2023/01/07 04:40:50;;;;;;;4.97;3.42;;;;;;;-5.42;100.00;100522.40;1715843;81;21859;-66
2023/01/07 04:43:17;;;;;;;3.92;3.02;;;;;;;-5.43;100.00;100533.45;1714038;81;21494;-65
2023/01/07 04:45:44;;;;;;;2.98;2.70;;;;;;;-5.39;100.00;100534.02;1717686;81;21484;-66
2023/01/07 04:48:13;;;;;;;3.55;3.02;;;;;;;-5.38;100.00;100540.05;1715160;82;21449;-65
2023/01/07 04:50:40;;;;;;;3.52;2.83;;;;;;;-5.36;100.00;100537.12;1725244;81;21523;-65
2023/01/07 04:53:07;;;;;;;3.05;2.45;;;;;;;-5.36;100.00;100537.12;1718227;81;21800;-65
2023/01/07 04:55:36;;;;;;;4.40;3.27;;;;;;;-5.35;100.00;100547.44;1704603;81;21258;-66
2023/01/07 04:58:03;;;;;;;4.62;3.33;;;;;;;-5.36;100.00;100539.27;1716358;81;21131;-68
2023/01/07 05:00:30;;;;;;;4.45;3.40;;;;;;;-5.37;100.00;100545.62;1717304;81;21594;-68
2023/01/07 05:02:57;;;;;;;3.67;3.27;;;;;;;-5.38;100.00;100542.19;1715480;81;22026;-65
2023/01/07 05:05:24;;;;;;;4.07;3.33;;;;;;;-5.34;100.00;100548.30;1714800;81;21396;-65
2023/01/07 05:07:50;;;;;;;4.00;3.17;;;;;;;-5.34;100.00;100554.71;1715012;82;21456;-64
2023/01/07 05:10:18;;;;;;;3.90;3.12;;;;;;;-5.35;100.00;100558.08;1718240;81;21501;-66
2023/01/07 05:12:45;;;;;;;3.77;3.22;;;;;;;-5.37;100.00;100559.72;1715255;82;21019;-65
2023/01/07 05:15:13;;;;;;;3.95;2.95;;;;;;;-5.38;100.00;100552.86;1716622;81;23447;-66
2023/01/07 05:17:40;;;;;;;3.35;2.65;;;;;;;-5.40;100.00;100549.37;1715458;82;21810;-65
2023/01/07 05:20:08;;;;;;;4.43;3.23;;;;;;;-5.35;100.00;100560.64;1715266;82;21460;-67
2023/01/07 05:22:36;;;;;;;4.67;3.52;;;;;;;-5.36;100.00;100558.91;1715427;81;21560;-64
2023/01/07 05:25:03;;;;;;;4.67;3.20;;;;;;;-5.32;100.00;100555.64;1716491;81;21541;-66
2023/01/07 05:27:30;;;;;;;5.53;3.37;;;;;;;-5.32;100.00;100558.20;1716315;81;21860;-65
2023/01/07 05:29:57;;;;;;;5.40;3.45;;;;;;;-5.31;100.00;100562.11;1714799;81;21716;-65
2023/01/07 05:32:24;;;;;;;5.95;3.10;;;;;;;-5.29;100.00;100568.58;1716589;81;20949;-66
2023/01/07 05:34:51;;;;;;;6.58;3.95;;;;;;;-5.28;100.00;100567.74;1715251;81;21494;-64
2023/01/07 05:37:18;;;;;;;4.72;3.27;;;;;;;-5.30;100.00;100564.25;1715483;81;21451;-66
2023/01/07 05:39:45;;;;;;;4.97;3.42;;;;;;;-5.31;100.00;100568.94;1716771;81;21515;-66
2023/01/07 05:42:14;;;;;;;3.72;2.80;;;;;;;-5.33;100.00;100570.16;1714852;81;21883;-65
2023/01/07 05:44:41;;;;;;;3.58;3.08;;;;;;;-5.31;100.00;100574.92;1715174;81;21033;-66
2023/01/07 05:47:08;;;;;;;4.92;3.40;;;;;;;-5.30;100.00;100572.81;1715272;81;21484;-66
2023/01/07 05:49:36;;;;;;;4.33;3.72;;;;;;;-5.25;100.00;100578.54;1640200;86;21594;-67
2023/01/07 05:52:03;;;;;;;3.87;3.33;;;;;;;-5.24;100.00;100577.28;1680977;83;21589;-65
2023/01/07 05:54:30;;;;;;;4.37;3.30;;;;;;;-5.24;100.00;100585.39;1713821;81;21587;-67
2023/01/07 05:56:56;;;;;;;4.03;3.15;;;;;;;-5.27;100.00;100592.58;1715313;83;21460;-66
2023/01/07 05:59:23;;;;;;;4.28;3.30;;;;;;;-5.25;100.00;100593.50;1647617;84;21608;-68
2023/01/07 06:01:50;;;;;;;4.95;3.58;;;;;;;-5.28;100.00;100592.10;1686152;83;21499;-66
2023/01/07 06:04:16;;;;;;;4.90;3.90;;;;;;;-5.29;100.00;100592.94;1685927;83;21568;-66
2023/01/07 06:06:43;;;;;;;;;;;;;;;-5.26;100.00;100600.72;1654918;84;21802;-67
2023/01/07 06:09:11;;;;;;;4.17;3.47;;;;;;;-5.33;100.00;100612.45;1683673;83;20451;-66
2023/01/07 06:11:38;;;;;;;;;;;;;;;-5.26;100.00;100616.52;1649336;84;21187;-65
2023/01/07 06:14:05;;;;;;;5.40;3.35;;;;;;;-5.32;100.00;100612.04;1656222;84;20453;-65
2023/01/07 06:16:32;;;;;;;5.53;4.20;;;;;;;-5.24;100.00;100609.75;1687570;83;23724;-65
2023/01/07 06:18:59;;;;;;;5.83;3.62;;;;;;;-5.22;100.00;100613.24;1690097;83;21790;-65
2023/01/07 06:21:26;;;;;;;4.30;3.52;;;;;;;-5.24;100.00;100608.05;1684791;83;21541;-66
2023/01/07 06:23:55;;;;;;;5.67;3.62;;;;;;;-5.24;100.00;100617.03;1687339;83;21529;-67
2023/01/07 06:26:21;;;;;;;4.72;3.60;;;;;;;-5.21;100.00;100619.72;1650993;84;21532;-64
2023/01/07 06:28:50;;;;;;;6.00;3.60;;;;;;;-5.20;100.00;100623.14;1687230;83;21603;-68
2023/01/07 06:31:17;;;;;;;4.25;3.77;;;;;;;-5.19;100.00;100615.93;1693687;81;21980;-66
2023/01/07 06:33:44;;;;;;;6.35;4.60;;;;;;;-5.18;100.00;100630.09;1713861;81;22183;-69
2023/01/07 06:36:10;;;;;;;4.62;3.50;;;;;;;-5.16;100.00;100634.87;1716652;81;21440;-70
2023/01/07 06:38:37;;;;;;;5.45;3.90;;;;;;;-5.16;100.00;100635.25;1694922;82;21521;-73
2023/01/07 06:42:55;;;;;;;5.58;3.95;;;;;;;-5.45;100.00;100639.31;1779202;78;23207;-63
2023/01/07 06:45:24;;;;;;;5.28;4.17;;;;;;;-5.26;100.00;100639.59;1738749;80;21450;-64
2023/01/07 06:47:50;;;;;;;5.13;4.07;;;;;;;-5.18;100.00;100644.58;1767765;80;21620;-63
2023/01/07 06:50:17;;;;;;;4.67;3.77;;;;;;;-5.22;100.00;100642.31;1757712;80;21583;-62
2023/01/07 06:52:44;;;;;;;4.20;3.70;;;;;;;-5.24;100.00;100646.52;1754834;80;21648;-62
2023/01/07 06:55:11;;;;;;;5.23;3.83;;;;;;;-5.20;100.00;100648.37;1752780;80;21589;-64
2023/01/07 06:57:37;;;;;;;5.10;4.22;;;;;;;-5.15;100.00;100648.14;1752903;80;21680;-63
2023/01/07 07:00:05;;;;;;;5.22;4.42;;;;;;;-5.07;100.00;100653.96;1759938;80;21789;-62
2023/01/07 07:02:33;;;;;;;9.55;4.45;;;;;;;-5.10;100.00;100653.03;1767709;80;21661;-63
2023/01/07 07:05:00;;;;;;;6.50;4.30;;;;;;;-5.10;100.00;100653.45;1759149;80;21069;-66
2023/01/07 07:07:26;;;;;;;4.43;3.70;;;;;;;-5.07;100.00;100659.95;1756333;80;21458;-66
2023/01/07 07:09:53;;;;;;;6.08;4.53;;;;;;;-5.04;100.00;100662.64;1756667;80;21601;-64
2023/01/07 07:12:20;;;;;;;6.65;4.30;;;;;;;-5.05;100.00;100667.71;1760612;80;22236;-64
2023/01/07 07:14:47;;;;;;;5.92;4.33;;;;;;;-5.04;100.00;100677.17;1761959;80;21537;-64
2023/01/07 07:17:14;;;;;;;5.25;4.60;;;;;;;-5.06;100.00;100684.80;1757791;80;21467;-67
2023/01/07 07:19:40;;;;;;;5.42;4.47;;;;;;;-5.06;100.00;100682.66;1758746;80;21585;-65
2023/01/07 07:22:07;;;;;;;6.47;4.10;;;;;;;-5.08;100.00;100680.03;1758010;80;21501;-70
2023/01/07 07:24:34;;;;;;;4.87;4.25;;;;;;;-5.10;100.00;100688.08;1756161;80;22073;-67
2023/01/07 07:27:01;;;;;;;8.18;4.90;;;;;;;-5.13;100.00;100700.36;1754821;80;21526;-67
2023/01/07 07:29:27;;;;;;;6.60;4.80;;;;;;;-5.14;100.00;100699.91;1763920;79;21482;-67
2023/01/07 07:31:54;;;;;;;7.60;4.42;;;;;;;-5.20;100.00;100703.50;1765776;80;21042;-66
2023/01/07 07:34:21;;;;;;;6.03;4.60;;;;;;;-5.17;100.00;100707.89;1757387;80;21005;-66
2023/01/07 07:36:47;;;;;;;7.37;5.58;;;;;;;-5.16;100.00;100713.47;1756418;80;21597;-66
2023/01/07 07:39:14;;;;;;;7.08;4.95;;;;;;;-5.13;100.00;100714.46;1758698;80;21424;-66
2023/01/07 07:41:41;;;;;;;6.80;4.80;;;;;;;-5.12;100.00;100708.53;1743282;80;26976;-66
2023/01/07 07:44:09;;;;;;;8.03;4.30;;;;;;;-5.13;100.00;100712.31;1749405;80;21523;-67
2023/01/07 07:46:35;;;;;;;6.75;4.60;;;;;;;-5.11;100.00;100711.95;1747918;80;21574;-67
2023/01/07 07:49:04;;;;;;;5.95;4.53;;;;;;;-5.06;100.00;100710.87;1739366;80;21427;-68
2023/01/07 07:51:32;;;;;;;7.40;4.70;;;;;;;-5.05;100.00;100712.59;1745222;80;21649;-67
2023/01/07 07:53:59;;;;;;;6.40;4.25;;;;;;;-5.04;100.00;100719.48;1742450;80;21519;-67
2023/01/07 07:56:26;;;;;;;7.53;5.20;;;;;;;-5.05;100.00;100717.73;1740755;80;21671;-67
2023/01/07 07:58:52;;;;;;;8.63;5.10;;;;;;;-5.10;100.00;100716.29;1739479;80;21455;-67
2023/01/07 08:01:19;;;;;;;5.28;4.10;;;;;;;-5.16;100.00;100717.31;1749527;80;21721;-68
2023/01/07 08:03:46;;;;;;;4.63;3.50;;;;;;;-5.16;100.00;100716.93;1733613;80;21416;-67
2023/01/07 08:06:13;;;;;;;7.92;5.15;;;;;;;-5.14;100.00;100719.52;1745835;80;21431;-67
2023/01/07 08:08:40;;;;;;;5.10;4.05;;;;;;;-5.16;100.00;100724.63;1738560;80;21519;-67
2023/01/07 08:11:07;;;;;;;5.62;4.28;;;;;;;-5.15;100.00;100723.79;1742587;80;21038;-67
2023/01/07 08:13:34;;;;;;;9.05;5.20;;;;;;;-5.09;100.00;100723.14;1733117;81;21911;-67
2023/01/07 08:16:00;;;;;;;8.75;5.45;;;;;;;-5.06;100.00;100727.54;1740207;80;21582;-67
2023/01/07 08:18:27;;;;;;;6.87;4.65;;;;;;;-5.01;100.00;100726.00;1739325;81;21543;-66
2023/01/07 08:20:54;;;;;;;5.00;4.28;;;;;;;-4.96;100.00;100732.18;1736217;80;21459;-66
2023/01/07 08:23:22;;;;;;;7.20;4.58;;;;;;;-4.94;100.00;100725.41;1736674;80;21443;-68
2023/01/07 08:25:49;;;;;;;6.78;4.92;;;;;;;-4.93;100.00;100729.33;1746974;80;21824;-66
2023/01/07 08:28:15;;;;;;;8.20;4.80;;;;;;;-4.90;100.00;100729.83;1738767;80;20994;-67
2023/01/07 08:30:42;;;;;;;5.78;4.55;;;;;;;-4.92;100.00;100738.75;1735220;81;21506;-65
2023/01/07 08:33:08;;;;;;;6.37;5.00;;;;;;;-4.90;100.00;100731.12;1740913;81;21491;-67
2023/01/07 08:35:35;;;;;;;6.80;4.67;;;;;;;-4.91;100.00;100736.67;1737217;80;21638;-67
2023/01/07 08:38:08;;;;;;;7.50;4.80;;;;;;;-4.92;100.00;100733.62;1733076;81;21786;-67
2023/01/07 08:40:36;;;;;;;7.70;4.45;;;;;;;-4.92;100.00;100726.34;1745499;80;21563;-65
2023/01/07 08:43:05;;;;;;;6.28;4.83;;;;;;;-4.96;100.00;100718.94;1750086;81;21696;-65
2023/01/07 08:45:31;;;;;;;7.22;4.60;;;;;;;-4.97;100.00;100723.62;1747015;81;21514;-64
2023/01/07 08:47:58;;;;;;;7.70;4.40;;;;;;;-5.00;100.00;100726.48;1749530;81;21590;-65
2023/01/07 08:50:26;;;;;;;5.75;4.15;;;;;;;-5.00;100.00;100723.91;1747935;81;21650;-65
2023/01/07 08:52:53;;;;;;;5.60;3.90;;;;;;;-4.97;100.00;100725.28;1743316;80;21790;-65
2023/01/07 08:55:20;;;;;;;6.33;4.30;;;;;;;-4.90;100.00;100724.31;1739654;81;21517;-66
2023/01/07 08:57:47;;;;;;;7.42;4.40;;;;;;;-4.89;100.00;100723.91;1754699;81;21637;-66
2023/01/07 09:00:15;;;;;;;6.47;4.12;;;;;;;-4.93;100.00;100722.05;1746651;81;21594;-68
2023/01/07 09:02:42;;;;;;;8.18;4.78;;;;;;;-4.94;100.00;100720.28;1751189;81;21806;-65
2023/01/07 09:05:09;;;;;;;5.83;4.42;;;;;;;-4.96;100.00;100715.50;1690905;84;21562;-64
2023/01/07 09:07:37;;;;;;;8.85;4.87;;;;;;;-4.93;100.00;100707.52;1713501;82;21493;-65
2023/01/07 09:10:05;;;;;;;6.03;4.67;;;;;;;-4.90;100.00;100717.00;1713422;82;21549;-70
2023/01/07 09:12:32;;;;;;;7.87;5.33;;;;;;;-4.86;100.00;100710.30;1713163;82;21621;-70
2023/01/07 09:14:59;;;;;;;6.10;4.37;;;;;;;-4.86;100.00;100706.45;1710073;82;21878;-70
2023/01/07 09:17:26;;;;;;;6.28;4.95;;;;;;;-4.84;100.00;100705.70;1712766;82;21610;-70
2023/01/07 09:19:52;;;;;;;7.25;4.87;;;;;;;-4.80;100.00;100706.28;1707998;82;21455;-67
2023/01/07 09:22:19;;;;;;;6.03;4.47;;;;;;;-4.79;100.00;100698.16;1692026;84;21506;-69
2023/01/07 09:24:45;;;;;;;7.70;4.67;;;;;;;-4.79;100.00;100702.02;1687254;84;21464;-70
2023/01/07 09:27:13;;;;;;;6.28;3.85;;;;;;;-4.77;100.00;100701.23;1689673;82;21926;-68
2023/01/07 09:29:41;;;;;;;5.62;3.85;;;;;;;-4.83;100.00;100704.87;1689246;83;21802;-70
2023/01/07 09:32:07;;;;;;;;;;;;;;;-4.83;100.00;100697.59;1698171;83;21617;-68
2023/01/07 09:34:34;;;;;;;7.67;4.60;;;;;;;-4.91;100.00;100703.31;1695086;83;20433;-67
2023/01/07 09:37:00;;;;;;;7.33;4.45;;;;;;;-4.82;100.00;100698.94;1693139;83;21859;-67
2023/01/07 09:39:28;;;;;;;;;;;;;;;-4.75;100.00;100706.43;1692459;83;21987;-64
2023/01/07 09:42:21;;;;;;;6.05;4.35;;;;;;;-4.77;100.00;100701.23;1686458;83;20467;-67
2023/01/07 09:45:14;;;;;;;7.53;4.22;;;;;;;-4.66;100.00;100704.62;1593137;89;21657;-69
2023/01/07 09:47:47;;;;;;;6.72;3.80;;;;;;;-4.66;100.00;100702.05;1578698;89;21651;-68
2023/01/07 09:50:19;;;;;;;5.53;4.70;;;;;;;-4.65;100.00;100691.84;1553436;90;21473;-66
2023/01/07 09:52:53;;;;;;;6.70;4.42;;;;;;;-4.68;100.00;100701.13;1594424;88;21764;-64
2023/01/07 09:55:35;;;;;;;6.25;4.03;;;;;;;-4.66;100.00;100701.63;1584259;88;21005;-67
2023/01/07 09:58:02;;;;;;;7.03;4.15;;;;;;;-4.60;100.00;100704.83;1585340;89;21632;-66
2023/01/07 10:00:29;;;;;;;5.65;4.25;;;;;;;-4.53;100.00;100703.81;1583785;88;21608;-65
2023/01/07 10:03:19;;;;;;;7.78;5.03;;;;;;;-4.53;100.00;100701.24;1579251;89;20998;-65
2023/01/07 10:06:12;;;;;;;6.15;4.30;;;;;;;-4.53;100.00;100708.08;1542581;88;21889;-67
2023/01/07 10:09:08;;;;;;;9.43;4.87;;;;;;;-4.53;100.00;100707.66;1593668;85;21610;-65
2023/01/07 10:11:54;;;;;;;6.67;5.00;;;;;;;-4.48;100.00;100710.80;1639737;85;21730;-66
2023/01/07 10:14:50;;;;;;;8.55;4.78;;;;;;;-4.45;100.00;100718.20;1664549;84;21589;-66
2023/01/07 10:17:26;;;;;;;6.67;4.45;;;;;;;-4.39;100.00;100709.45;1656921;84;21013;-66
2023/01/07 10:20:03;;;;;;;7.90;4.60;;;;;;;-4.39;100.00;100710.73;1659056;84;21754;-67
2023/01/07 10:22:37;;;;;;;6.15;4.53;;;;;;;-4.33;100.00;100713.50;1654369;84;21679;-67
2023/01/07 10:25:16;;;;;;;6.47;4.80;;;;;;;-4.31;100.00;100717.41;1665625;84;21503;-68
2023/01/07 10:27:45;;;;;;;8.50;4.40;;;;;;;-4.36;100.00;100713.38;1660084;84;21587;-69
2023/01/07 10:30:24;;;;;;;7.22;4.60;;;;;;;-4.35;100.00;100716.43;1636417;86;21563;-66
2023/01/07 10:33:00;;;;;;;9.10;4.80;;;;;;;-4.36;100.00;100713.80;1628852;87;21944;-66
2023/01/07 10:35:29;;;;;;;9.35;5.10;;;;;;;-4.35;100.00;100719.38;1655333;84;21528;-65
2023/01/07 10:37:57;;;;;;;5.92;4.65;;;;;;;-4.36;100.00;100724.94;1666774;84;21491;-66
2023/01/07 10:40:43;;;;;;;7.97;5.15;;;;;;;-4.33;100.00;100719.92;1631325;85;21562;-66
2023/01/07 10:43:44;;;;;;;8.05;5.15;;;;;;;-4.32;100.00;100718.22;1659808;84;21641;-65
2023/01/07 10:46:37;;;;;;;8.75;4.90;;;;;;;-4.32;100.00;100728.07;1617258;84;21700;-69
2023/01/07 10:49:33;;;;;;;11.18;5.58;;;;;;;-4.33;100.00;100725.05;1644569;85;21716;-67
2023/01/07 10:52:30;;;;;;;8.07;5.60;;;;;;;-4.21;100.00;100727.58;1630048;86;21049;-67
2023/01/07 10:55:08;;;;;;;8.25;4.97;;;;;;;-4.15;100.00;100727.78;1655246;84;21743;-64
2023/01/07 10:57:37;;;;;;;8.28;5.15;;;;;;;-4.13;100.00;100733.84;1589705;87;20959;-67
2023/01/07 11:00:06;;;;;;;8.28;5.12;;;;;;;-4.13;100.00;100732.56;1621007;86;22378;-66
2023/01/07 11:02:34;;;;;;;6.87;4.72;;;;;;;-4.16;100.00;100729.48;1626924;86;21063;-65
2023/01/07 11:05:00;;;;;;;;;;;;;;;-4.19;100.00;100727.22;1634225;85;21585;-65
2023/01/07 11:07:33;;;;;;;8.03;5.05;;;;;;;-4.27;100.00;100718.39;1632870;86;20463;-67
2023/01/07 11:10:03;;;;;;;8.20;5.47;;;;;;;-4.23;100.00;100719.82;1621376;86;21569;-67
2023/01/07 11:12:40;;;;;;;7.92;5.12;;;;;;;-4.18;100.00;100721.25;1646375;84;21958;-68
2023/01/07 11:15:23;;;;;;;9.05;5.72;;;;;;;-4.13;100.00;100726.14;1628351;87;21505;-67
2023/01/07 11:18:08;;;;;;;6.10;4.33;;;;;;;-4.15;100.00;100724.80;1645642;85;20999;-67
2023/01/07 11:20:56;;;;;;;7.70;4.92;;;;;;;-4.14;100.00;100723.12;1653149;84;21583;-67
2023/01/07 11:23:30;;;;;;;8.25;5.17;;;;;;;-4.09;100.00;100724.13;1652493;84;21418;-67
2023/01/07 11:26:24;;;;;;;8.00;4.80;;;;;;;-4.07;100.00;100717.77;1658781;85;21748;-66
2023/01/07 11:28:59;;;;;;;8.45;4.87;;;;;;;-3.89;100.00;100714.95;1658811;85;21598;-67
2023/01/07 11:31:49;;;;;;;6.53;4.55;;;;;;;-3.76;100.00;100716.67;1657120;85;20979;-64
2023/01/07 11:34:23;;;;;;;7.00;5.03;;;;;;;-3.69;100.00;100713.91;1659279;85;21464;-65
2023/01/07 11:36:49;;;;;;;7.58;5.05;;;;;;;-3.49;100.00;100721.36;1656969;86;20995;-66
2023/01/07 11:39:23;;;;;;;7.75;5.12;;;;;;;-3.20;100.00;100719.27;1657349;86;22106;-66
2023/01/07 11:41:58;;;;;;;6.12;4.62;;;;;;;-2.91;100.00;100714.53;1656418;85;21490;-68
2023/01/07 11:44:26;;;;;;;7.05;5.05;;;;;;;-2.63;100.00;100722.63;1661497;84;21017;-66
2023/01/07 11:46:52;;;;;;;7.95;5.10;;;;;;;-2.41;100.00;100717.23;1653646;84;21499;-66